createdAt,value
2019-05-21T00:01:37.050Z,100008.00
2019-05-21T00:04:07.081Z,100000.93
2019-05-21T00:06:37.080Z,99999.86
2019-05-21T00:09:07.164Z,100004.39
2019-05-21T00:11:37.251Z,100002.41
2019-05-21T00:14:07.248Z,100005.25
2019-05-21T00:16:37.317Z,100001.77
2019-05-21T00:19:07.414Z,100002.17
2019-05-21T00:21:37.418Z,100000.16
2019-05-21T00:24:07.492Z,99990.88
2019-05-21T00:26:37.609Z,99991.63
2019-05-21T00:29:43.783Z,99996.34
2019-05-21T00:32:50.151Z,99995.85
2019-05-21T00:35:56.669Z,100004.05
2019-05-21T00:39:03.167Z,100000.81
2019-05-21T00:42:01.741Z,100004.53
2019-05-21T00:44:36.690Z,100002.80
2019-05-21T00:47:09.117Z,100001.30
2019-05-21T00:49:39.367Z,100001.99
2019-05-21T00:52:09.740Z,100000.70
2019-05-21T00:54:39.942Z,99997.16
2019-05-21T00:57:09.995Z,99994.28
2019-05-21T00:59:39.985Z,100002.81
2019-05-21T01:02:10.119Z,99998.36
2019-05-21T01:04:40.102Z,99992.56
2019-05-21T01:07:10.103Z,99995.08
2019-05-21T01:09:41.512Z,99992.42
2019-05-21T01:12:11.525Z,99991.84
2019-05-21T01:14:41.593Z,99993.52
2019-05-21T01:17:11.787Z,99990.28
2019-05-21T01:19:41.792Z,99990.28
2019-05-21T01:22:11.871Z,99988.57
2019-05-21T01:24:41.904Z,99990.53
2019-05-21T01:27:11.910Z,99983.17
2019-05-21T01:29:41.907Z,99981.31
2019-05-21T01:32:11.942Z,99990.00
2019-05-21T01:34:41.937Z,99983.36
2019-05-21T01:37:11.998Z,99981.35
2019-05-21T01:39:41.986Z,99986.51
2019-05-21T01:42:11.989Z,99988.67
2019-05-21T01:44:41.989Z,99989.30
2019-05-21T01:47:11.990Z,99987.98
2019-05-21T01:49:42.057Z,99987.19
2019-05-21T01:52:12.145Z,99983.60
2019-05-21T01:54:42.102Z,99986.39
2019-05-21T01:57:12.102Z,99985.07
2019-05-21T01:59:42.110Z,99987.02
2019-05-21T02:02:12.115Z,99986.64
2019-05-21T02:04:42.140Z,99985.07
2019-05-21T02:07:12.133Z,99989.39
2019-05-21T02:10:00.233Z,99991.96
2019-05-21T02:12:30.239Z,99995.66
2019-05-21T02:15:00.235Z,99995.66
2019-05-21T02:17:30.246Z,100008.44
2019-05-21T02:20:00.314Z,100009.38
2019-05-21T02:22:30.346Z,99993.15
2019-05-21T02:25:01.319Z,99994.99
2019-05-21T02:27:31.448Z,100000.73
2019-05-21T02:30:03.172Z,99998.61
2019-05-21T02:32:33.613Z,100006.20
2019-05-21T02:35:04.355Z,100000.94
2019-05-21T02:37:34.511Z,100008.97
2019-05-21T02:40:05.818Z,100004.77
2019-05-21T02:42:36.158Z,100015.46
2019-05-21T02:45:08.009Z,100014.38
2019-05-21T02:47:38.015Z,100013.53
2019-05-21T02:50:08.716Z,100007.30
2019-05-21T02:52:38.724Z,100002.13
2019-05-21T02:55:09.440Z,99998.54
2019-05-21T02:57:41.108Z,100000.83
2019-05-21T03:00:38.662Z,100002.77
2019-05-21T03:03:08.447Z,100009.23
2019-05-21T03:05:38.536Z,100003.94
2019-05-21T03:23:22.566Z,100006.11
2019-05-21T03:25:52.569Z,99971.74
2019-05-21T03:28:22.606Z,100014.77
2019-05-21T03:30:52.603Z,100015.58
2019-05-21T03:33:23.811Z,100012.72
2019-05-21T03:35:53.830Z,100020.28
2019-05-21T03:38:23.862Z,100017.77
2019-05-21T03:40:53.882Z,100019.31
2019-05-21T03:43:23.916Z,100029.64
2019-05-21T03:45:54.026Z,100026.51
2019-05-21T03:48:24.119Z,100020.84
2019-05-21T03:50:54.399Z,100026.59
2019-05-21T03:53:24.429Z,100031.05
2019-05-21T03:55:54.424Z,100033.48
2019-05-21T03:58:24.502Z,100044.29
2019-05-21T04:00:55.595Z,100037.41
2019-05-21T04:03:25.593Z,100037.27
2019-05-21T04:05:55.615Z,100043.30
2019-05-21T04:08:25.647Z,100039.88
2019-05-21T04:10:55.638Z,100032.48
2019-05-21T04:13:25.928Z,100028.50
2019-05-21T04:16:00.315Z,100038.92
2019-05-21T04:18:31.973Z,100038.48
2019-05-21T04:21:02.013Z,100035.08
2019-05-21T04:23:32.055Z,100026.19
2019-05-21T04:26:02.062Z,100030.89
2019-05-21T04:28:32.082Z,100025.72
2019-05-21T04:31:02.121Z,100026.27
2019-05-21T04:33:32.133Z,100030.45
2019-05-21T04:36:02.176Z,100028.18
2019-05-21T04:38:32.165Z,100030.05
2019-05-21T04:41:02.194Z,100027.58
2019-05-21T04:43:32.187Z,100028.05
2019-05-21T04:46:02.229Z,100024.95
2019-05-21T04:48:32.272Z,100029.16
2019-05-21T04:51:02.298Z,100031.25
2019-05-21T04:53:32.354Z,100027.14
2019-05-21T04:56:02.419Z,100029.11
2019-05-21T04:58:32.433Z,100028.08
2019-05-21T05:01:02.508Z,100035.48
2019-05-21T05:03:32.523Z,100028.98
2019-05-21T05:06:02.589Z,100033.25
2019-05-21T05:08:32.600Z,100035.20
2019-05-21T05:11:02.842Z,100041.97
2019-05-21T05:13:32.960Z,100050.82
2019-05-21T05:16:04.339Z,100044.38
2019-05-21T05:18:35.665Z,100040.56
2019-05-21T05:21:05.788Z,100041.72
2019-05-21T05:23:35.874Z,100041.66
2019-05-21T05:26:05.883Z,100041.99
2019-05-21T05:28:35.950Z,100044.99
2019-05-21T05:31:06.056Z,100040.44
2019-05-21T05:33:36.084Z,100044.42
2019-05-21T05:36:06.078Z,100041.55
2019-05-21T05:38:36.124Z,100035.02
2019-05-21T05:41:06.300Z,100036.20
2019-05-21T05:43:36.322Z,100035.30
2019-05-21T05:46:06.519Z,100034.38
2019-05-21T05:48:38.184Z,100034.93
2019-05-21T05:51:08.785Z,100033.89
2019-05-21T05:53:56.393Z,100035.02
2019-05-21T05:56:27.968Z,100038.80
2019-05-21T05:58:58.045Z,100035.67
2019-05-21T06:01:29.789Z,100034.95
2019-05-21T06:03:59.802Z,100025.02
2019-05-21T06:06:29.829Z,100016.20
2019-05-21T06:08:59.896Z,100014.69
2019-05-21T06:11:29.960Z,100023.25
2019-05-21T06:13:59.985Z,100018.36
2019-05-21T06:16:30.088Z,100021.95
2019-05-21T06:19:00.081Z,100025.48
2019-05-21T06:21:30.128Z,100024.26
2019-05-21T06:24:00.124Z,100029.87
2019-05-21T06:26:30.149Z,100036.58
2019-05-21T06:29:00.154Z,100035.77
2019-05-21T06:31:30.205Z,100037.47
2019-05-21T06:34:00.215Z,100035.81
2019-05-21T06:36:30.299Z,100030.53
2019-05-21T06:39:00.466Z,100032.69
2019-05-21T06:41:32.381Z,100030.66
2019-05-21T06:44:02.469Z,100034.80
2019-05-21T06:46:32.573Z,100038.95
2019-05-21T06:49:02.583Z,100039.63
2019-05-21T06:51:32.642Z,100040.19
2019-05-21T06:54:02.875Z,100036.24
2019-05-21T06:56:32.848Z,100036.68
2019-05-21T06:59:03.968Z,100038.49
2019-05-21T07:01:33.978Z,100032.35
2019-05-21T07:04:04.060Z,100034.37
2019-05-21T07:06:34.076Z,100030.69
2019-05-21T07:09:05.673Z,100036.64
2019-05-21T07:11:35.789Z,100034.06
2019-05-21T07:14:05.798Z,100035.89
2019-05-21T07:16:35.822Z,100034.38
2019-05-21T07:19:05.932Z,100031.22
2019-05-21T07:21:35.959Z,100033.19
2019-05-21T07:24:06.058Z,100033.05
2019-05-21T07:26:36.093Z,100026.08
2019-05-21T07:29:06.370Z,100018.42
2019-05-21T07:31:37.634Z,100017.47
2019-05-21T07:34:07.649Z,100023.73
2019-05-21T07:36:37.692Z,100028.39
2019-05-21T07:39:07.908Z,100027.53
2019-05-21T07:41:37.901Z,100032.06
2019-05-21T07:44:07.920Z,100030.92
2019-05-21T07:46:39.685Z,100027.05
2019-05-21T07:49:09.805Z,100023.91
2019-05-21T07:51:39.944Z,100025.92
2019-05-21T07:54:10.073Z,100022.38
2019-05-21T07:56:40.081Z,100019.13
2019-05-21T07:59:11.072Z,100022.35
2019-05-21T08:01:41.107Z,100027.54
2019-05-21T08:04:11.158Z,100030.47
2019-05-21T08:06:41.294Z,100027.72
2019-05-21T08:09:14.714Z,100027.34
2019-05-21T08:11:46.801Z,100018.55
2019-05-21T08:14:15.926Z,100014.29
2019-05-21T08:16:46.000Z,100003.45
2019-05-21T08:19:16.026Z,100006.84
2019-05-21T08:21:46.013Z,100006.36
2019-05-21T08:24:16.028Z,100006.73
2019-05-21T08:26:46.033Z,100006.33
2019-05-21T08:29:16.063Z,100002.63
2019-05-21T08:31:46.049Z,100001.63
2019-05-21T08:34:16.169Z,100005.88
2019-05-21T08:36:47.291Z,100004.39
2019-05-21T08:39:28.226Z,99997.26
2019-05-21T08:41:48.997Z,99995.59
2019-05-21T08:44:19.152Z,100001.40
2019-05-21T08:46:49.193Z,99989.66
2019-05-21T08:49:19.179Z,99989.75
2019-05-21T08:51:49.212Z,99999.76
2019-05-21T08:54:20.852Z,99991.52
2019-05-21T08:56:50.859Z,99984.05
2019-05-21T08:59:20.894Z,99993.59
2019-05-21T09:01:50.892Z,99990.27
2019-05-21T09:04:20.950Z,99985.19
2019-05-21T09:06:50.998Z,99978.35
2019-05-21T09:09:21.011Z,99982.38
2019-05-21T09:11:51.130Z,99973.62
2019-05-21T09:14:21.177Z,99969.53
2019-05-21T09:16:51.278Z,99973.76
2019-05-21T09:19:21.257Z,99969.20
2019-05-21T09:21:51.448Z,99971.77
2019-05-21T09:24:21.492Z,99970.55
2019-05-21T09:26:51.568Z,99977.38
2019-05-21T09:29:21.650Z,99973.35
2019-05-21T09:31:51.622Z,99976.81
2019-05-21T09:34:21.636Z,99980.69
2019-05-21T09:36:51.806Z,99982.75
2019-05-21T09:39:21.827Z,99980.95
2019-05-21T09:41:51.922Z,99977.64
2019-05-21T09:44:21.919Z,99974.97
2019-05-21T09:46:52.139Z,99981.35
2019-05-21T09:49:22.215Z,99975.78
2019-05-21T09:51:52.278Z,99981.62
2019-05-21T09:54:22.287Z,99975.98
2019-05-21T09:56:52.333Z,99966.88
2019-05-21T09:59:33.060Z,99969.45
2019-05-21T10:02:04.795Z,99977.75
2019-05-21T10:04:34.770Z,99980.91
2019-05-21T10:07:05.044Z,99981.88
2019-05-21T10:09:35.150Z,99976.95
2019-05-21T10:12:05.485Z,99978.91
2019-05-21T10:14:35.486Z,99973.88
2019-05-21T10:17:05.632Z,99962.89
2019-05-21T10:19:35.798Z,99964.64
2019-05-21T10:22:06.197Z,99965.09
2019-05-21T10:24:36.342Z,99965.88
2019-05-21T10:27:06.503Z,99968.99
2019-05-21T10:29:36.489Z,99967.05
2019-05-21T10:32:06.579Z,99966.17
2019-05-21T10:34:36.643Z,99954.41
2019-05-21T10:37:06.655Z,99948.97
2019-05-21T10:39:36.777Z,99952.75
2019-05-21T10:42:06.987Z,99953.41
2019-05-21T10:44:36.994Z,99960.66
2019-05-21T10:47:07.337Z,99955.30
2019-05-21T10:49:37.364Z,99947.27
2019-05-21T10:52:07.360Z,99945.65
2019-05-21T10:54:37.469Z,99943.46
2019-05-21T10:57:07.463Z,99945.66
2019-05-21T10:59:37.475Z,99942.23
2019-05-21T11:02:11.899Z,99935.57
2019-05-21T11:04:43.535Z,99933.72
2019-05-21T11:07:15.431Z,99937.02
2019-05-21T11:09:45.405Z,99940.67
2019-05-21T11:12:15.536Z,99943.59
2019-05-21T11:14:45.575Z,99941.91
2019-05-21T11:17:16.639Z,99941.26
2019-05-21T11:19:46.768Z,99947.91
2019-05-21T11:22:16.780Z,99942.30
2019-05-21T11:24:46.776Z,99948.82
2019-05-21T11:27:16.844Z,99947.15
2019-05-21T11:29:46.894Z,99949.34
2019-05-21T11:32:16.966Z,99951.86
2019-05-21T11:34:50.027Z,99955.55
2019-05-21T11:37:18.742Z,99949.15
2019-05-21T11:39:48.816Z,99949.20
2019-05-21T11:42:18.835Z,99957.01
2019-05-21T11:44:48.890Z,99947.63
2019-05-21T11:47:18.885Z,99956.30
2019-05-21T11:49:48.895Z,99946.01
2019-05-21T11:52:18.984Z,99946.22
2019-05-21T11:54:49.019Z,99950.62
2019-05-21T11:57:19.020Z,99945.98
2019-05-21T11:59:49.059Z,99943.89
2019-05-21T12:02:19.049Z,99944.23
2019-05-21T12:04:49.100Z,99943.16
2019-05-21T12:07:19.073Z,99948.16
2019-05-21T12:09:49.342Z,99940.82
2019-05-21T12:12:19.614Z,99941.99
2019-05-21T12:14:49.671Z,99944.71
2019-05-21T12:17:19.805Z,99938.17
2019-05-21T12:19:49.808Z,99942.67
2019-05-21T12:22:19.964Z,99944.98
2019-05-21T12:24:50.015Z,99937.34
2019-05-21T12:27:19.994Z,99946.99
2019-05-21T12:29:50.059Z,99944.38
2019-05-21T12:32:21.306Z,99942.50
2019-05-21T12:34:51.433Z,99942.21
2019-05-21T12:37:21.412Z,99938.30
2019-05-21T12:39:51.556Z,99937.69
2019-05-21T12:42:21.564Z,99939.51
2019-05-21T12:44:51.579Z,99934.89
2019-05-21T12:47:21.554Z,99941.41
2019-05-21T12:49:51.837Z,99938.31
2019-05-21T12:52:21.826Z,99932.70
2019-05-21T12:54:52.030Z,99937.39
2019-05-21T12:57:22.127Z,99938.15
2019-05-21T12:59:52.419Z,99936.33
2019-05-21T13:02:22.486Z,99932.70
2019-05-21T13:04:52.479Z,99927.26
2019-05-21T13:07:22.589Z,99925.27
2019-05-21T13:09:52.784Z,99922.12
2019-05-21T13:12:22.777Z,99918.63
2019-05-21T13:14:52.830Z,99929.92
2019-05-21T13:17:22.801Z,99910.17
2019-05-21T13:19:53.208Z,99916.63
2019-05-21T13:22:23.198Z,99912.41
2019-05-21T13:24:53.376Z,99912.04
2019-05-21T13:27:23.361Z,99902.95
2019-05-21T13:29:53.445Z,99905.36
2019-05-21T13:32:23.433Z,99912.84
2019-05-21T13:34:53.487Z,99914.07
2019-05-21T13:37:23.548Z,99907.63
2019-05-21T14:00:35.169Z,99942.18
2019-05-21T14:03:06.783Z,99936.06
2019-05-21T14:05:38.499Z,99936.02
2019-05-21T14:08:08.518Z,99937.98
2019-05-21T14:10:39.049Z,99933.41
2019-05-21T14:13:09.422Z,99934.67
2019-05-21T14:15:39.485Z,99926.67
2019-05-21T14:18:09.833Z,99925.67
2019-05-21T14:20:39.813Z,99916.55
2019-05-21T14:23:09.866Z,99912.29
2019-05-21T14:25:39.934Z,99913.06
2019-05-21T14:28:10.078Z,99904.97
2019-05-21T14:30:40.181Z,99898.98
2019-05-21T14:33:10.240Z,99890.77
2019-05-21T14:35:40.741Z,99880.33
2019-05-21T14:38:10.754Z,99878.91
2019-05-21T14:40:40.829Z,99872.51
2019-05-21T14:43:11.002Z,99877.67
2019-05-21T14:45:41.112Z,99870.87
2019-05-21T14:48:11.112Z,99863.33
2019-05-21T14:50:41.165Z,99857.82
2019-05-21T14:53:11.318Z,99841.64
2019-05-21T14:55:41.395Z,99856.96
2019-05-21T14:58:11.373Z,99857.46
2019-05-21T15:00:41.631Z,99860.57
2019-05-21T15:03:24.231Z,99860.70
2019-05-21T15:05:43.448Z,99848.77
2019-05-21T15:08:13.451Z,99851.24
2019-05-21T15:10:49.291Z,99841.64
2019-05-21T15:13:16.411Z,99836.44
2019-05-21T15:15:46.477Z,99841.76
2019-05-21T15:18:21.337Z,99843.56
2019-05-21T15:20:52.687Z,99831.64
2019-05-21T15:23:22.671Z,99835.19
2019-05-21T15:25:52.650Z,99825.16
2019-05-21T15:28:22.638Z,99834.41
2019-05-21T15:30:52.861Z,99831.61
2019-05-21T15:33:22.990Z,99826.13
2019-05-21T15:35:52.970Z,99838.38
2019-05-21T15:38:23.045Z,99829.38
2019-05-21T15:41:08.905Z,99827.93
2019-05-21T15:43:24.768Z,99836.40
2019-05-21T15:45:54.820Z,99845.23
2019-05-21T15:48:26.609Z,99839.84
2019-05-21T15:50:56.567Z,99845.45
2019-05-21T15:53:26.552Z,99848.78
2019-05-21T15:55:56.556Z,99847.03
2019-05-21T15:58:27.075Z,99849.63
2019-05-21T16:00:57.224Z,99846.16
2019-05-21T16:03:27.305Z,99850.56
2019-05-21T16:05:57.423Z,99847.03
2019-05-21T16:08:28.606Z,99850.36
2019-05-21T16:10:58.603Z,99852.65
2019-05-21T16:13:28.686Z,99851.95
2019-05-21T16:15:58.705Z,99851.16
2019-05-21T16:18:28.739Z,99846.05
2019-05-21T16:20:58.717Z,99849.20
2019-05-21T16:23:28.800Z,99855.60
2019-05-21T16:25:58.869Z,99859.22
2019-05-21T16:28:28.893Z,99852.17
2019-05-21T16:30:58.889Z,99848.02
2019-05-21T16:33:28.951Z,99854.16
2019-05-21T16:35:58.977Z,99858.55
2019-05-21T16:38:29.354Z,99854.52
2019-05-21T16:40:59.430Z,99856.67
2019-05-21T16:43:29.448Z,99854.77
2019-05-21T16:45:59.430Z,99856.58
2019-05-21T16:48:29.476Z,99851.39
2019-05-21T16:50:59.470Z,99857.31
2019-05-21T16:53:29.477Z,99847.48
2019-05-21T16:55:59.517Z,99841.33
2019-05-21T16:58:29.623Z,99842.27
2019-05-21T17:00:59.831Z,99841.13
2019-05-21T17:03:29.811Z,99843.52
2019-05-21T17:05:59.880Z,99838.45
2019-05-21T17:08:30.024Z,99839.22
2019-05-21T17:11:00.008Z,99834.60
2019-05-21T17:13:30.048Z,99836.30
2019-05-21T17:16:00.000Z,99842.83
2019-05-21T17:18:29.993Z,99838.39
2019-05-21T17:20:59.986Z,99840.21
2019-05-21T17:23:29.988Z,99840.13
2019-05-21T17:25:59.970Z,99845.28
2019-05-21T17:28:29.994Z,99850.44
2019-05-21T17:31:00.079Z,99842.33
2019-05-21T17:33:30.179Z,99845.45
2019-05-21T17:36:00.253Z,99849.03
2019-05-21T17:38:30.410Z,99839.94
2019-05-21T17:43:29.261Z,99836.85
2019-05-21T17:45:59.391Z,99842.33
2019-05-21T17:48:29.532Z,99834.31
2019-05-21T17:50:59.647Z,99832.08
2019-05-21T17:53:29.644Z,99836.72
2019-05-21T17:55:59.671Z,99836.20
2019-05-21T17:58:31.624Z,99835.67
2019-05-21T18:01:03.472Z,99840.75
2019-05-21T18:03:33.516Z,99833.19
2019-05-21T18:06:05.024Z,99839.23
2019-05-21T18:08:35.259Z,99840.95
2019-05-21T18:11:05.683Z,99839.13
2019-05-21T18:13:37.086Z,99841.41
2019-05-21T18:16:09.043Z,99842.61
2019-05-21T18:18:39.167Z,99847.83
2019-05-21T18:21:09.441Z,99844.44
2019-05-21T18:23:39.551Z,99847.44
2019-05-21T18:26:10.324Z,99838.47
2019-05-21T18:28:40.777Z,99847.30
2019-05-21T18:31:11.024Z,99850.50
2019-05-21T18:33:41.139Z,99850.77
2019-05-21T18:36:11.148Z,99844.73
2019-05-21T18:38:42.257Z,99856.44
2019-05-21T18:41:12.692Z,99858.01
2019-05-21T18:43:42.785Z,99849.64
2019-05-21T18:46:12.906Z,99854.84
2019-05-21T18:48:42.984Z,99852.22
2019-05-21T18:51:13.013Z,99849.70
2019-05-21T18:53:43.043Z,99851.44
2019-05-21T18:56:13.041Z,99849.13
2019-05-21T18:58:43.494Z,99846.13
2019-05-21T19:01:13.898Z,99847.28
2019-05-21T19:03:43.986Z,99847.28
2019-05-21T19:06:14.065Z,99848.20
2019-05-21T19:08:51.541Z,99848.68
2019-05-21T19:11:22.759Z,99848.68
2019-05-21T19:13:52.892Z,99853.08
2019-05-21T19:16:22.893Z,99846.76
2019-05-21T19:18:52.878Z,99845.47
2019-05-21T19:21:23.048Z,99852.81
2019-05-21T19:23:53.106Z,99855.34
2019-05-21T19:26:23.365Z,99858.23
2019-05-21T19:28:53.347Z,99853.38
2019-05-21T19:31:23.361Z,99855.75
2019-05-21T19:33:53.610Z,99852.91
2019-05-21T19:36:23.581Z,99856.86
2019-05-21T19:38:53.677Z,99858.48
2019-05-21T19:41:23.691Z,99862.80
2019-05-21T19:43:53.841Z,99862.75
2019-05-21T19:46:23.934Z,99865.84
2019-05-21T19:48:53.927Z,99866.12
2019-05-21T19:51:23.929Z,99863.98
2019-05-21T19:53:54.389Z,99871.24
2019-05-21T19:56:24.645Z,99873.64
2019-05-21T19:58:54.723Z,99871.70
2019-05-21T20:01:25.097Z,99867.91
2019-05-21T20:03:55.373Z,99876.31
2019-05-21T20:06:25.417Z,99873.19
2019-05-21T20:08:55.438Z,99869.87
2019-05-21T20:11:25.783Z,99877.23
2019-05-21T20:13:55.878Z,99876.63
2019-05-21T20:16:27.396Z,99870.17
2019-05-21T20:18:57.396Z,99876.58
2019-05-21T20:21:27.829Z,99879.06
2019-05-21T20:23:58.034Z,99878.84
2019-05-21T20:26:30.206Z,99877.86
2019-05-21T20:29:00.675Z,99878.06
2019-05-21T20:31:30.804Z,99879.31
2019-05-21T20:34:02.243Z,99878.84
2019-05-21T20:36:32.296Z,99876.18
2019-05-21T20:39:02.484Z,99875.81
2019-05-21T20:41:34.235Z,99872.51
2019-05-21T20:44:04.480Z,99876.02
2019-05-21T20:46:34.774Z,99875.34
2019-05-21T20:49:06.006Z,99877.05
2019-05-21T20:51:37.519Z,99875.70
2019-05-21T20:54:08.224Z,99870.81
2019-05-21T20:56:40.113Z,99875.48
2019-05-21T20:59:10.365Z,99868.30
2019-05-21T21:01:41.281Z,99866.92
2019-05-21T21:04:11.790Z,99867.41
2019-05-21T21:06:42.673Z,99873.07
2019-05-21T21:09:13.639Z,99865.57
2019-05-21T21:11:43.886Z,99867.73
2019-05-21T21:14:18.260Z,99866.78
2019-05-21T21:16:48.345Z,99869.58
2019-05-21T21:19:18.511Z,99862.36
2019-05-21T21:21:48.879Z,99865.06
2019-05-21T21:24:19.161Z,99863.23
2019-05-21T21:26:49.271Z,99862.09
2019-05-21T21:29:19.310Z,99866.11
2019-05-21T21:31:49.368Z,99865.09
2019-05-21T21:34:19.702Z,99868.13
2019-05-21T21:36:53.174Z,99869.61
2019-05-21T21:39:21.506Z,99868.95
2019-05-21T21:41:52.228Z,99874.14
2019-05-21T21:44:33.416Z,99873.00
2019-05-21T21:46:54.507Z,99880.33
2019-05-21T21:49:25.478Z,99884.01
2019-05-21T21:51:56.675Z,99877.31
2019-05-21T21:54:26.697Z,99878.13
2019-05-21T21:56:56.782Z,99874.45
2019-05-21T21:59:26.967Z,99873.29
2019-05-21T22:02:00.004Z,99880.61
2019-05-21T22:04:34.219Z,99878.13
2019-05-21T22:07:05.404Z,99875.14
2019-05-21T22:09:35.892Z,99877.59
2019-05-21T22:12:06.496Z,99878.41
2019-05-21T22:14:49.784Z,99879.11
2019-05-21T22:17:10.321Z,99874.06
2019-05-21T22:19:40.920Z,99877.08
2019-05-21T22:22:11.778Z,99877.08
2019-05-21T22:24:41.852Z,99877.92
2019-05-21T22:27:11.920Z,99882.81
2019-05-21T22:29:41.981Z,99877.45
2019-05-21T22:32:16.563Z,99887.96
2019-05-21T22:34:44.826Z,99884.64
2019-05-21T22:37:16.586Z,99889.66
2019-05-21T22:39:48.112Z,99887.16
2019-05-21T22:42:19.386Z,99889.84
2019-05-21T22:44:49.455Z,99885.98
2019-05-21T22:47:20.728Z,99890.70
2019-05-21T22:49:50.860Z,99888.35
2019-05-21T22:52:20.893Z,99882.35
2019-05-21T22:54:50.897Z,99883.52
2019-05-21T22:57:21.239Z,99888.19
2019-05-21T22:59:51.390Z,99884.67
2019-05-21T23:02:23.022Z,99875.66
2019-05-21T23:04:53.363Z,99879.34
2019-05-21T23:07:23.561Z,99875.02
2019-05-21T23:09:54.697Z,99877.52
2019-05-21T23:12:24.841Z,99868.86
2019-05-21T23:14:55.188Z,99876.84
2019-05-21T23:17:28.383Z,99873.66
2019-05-21T23:20:04.542Z,99870.30
2019-05-21T23:22:36.208Z,99868.97
2019-05-21T23:25:07.920Z,99875.47
2019-05-21T23:27:38.855Z,99870.80
2019-05-21T23:30:11.477Z,99873.16
2019-05-21T23:32:42.155Z,99871.81
2019-05-21T23:35:12.604Z,99875.64
2019-05-21T23:37:44.763Z,99873.47
2019-05-21T23:40:17.172Z,99869.27
2019-05-21T23:42:47.486Z,99873.47
2019-05-21T23:45:18.259Z,99874.10
2019-05-21T23:47:49.063Z,99872.13
2019-05-21T23:50:20.690Z,99871.42
2019-05-21T23:52:52.667Z,99864.93
2019-05-21T23:55:23.899Z,99876.95
2019-05-21T23:57:53.992Z,99863.60
